createdAt,value
2018-08-30T00:01:36.116Z,15.50
2018-08-30T00:04:05.211Z,15.50
2018-08-30T00:06:34.214Z,15.50
2018-08-30T00:09:03.273Z,15.50
2018-08-30T00:11:32.225Z,15.40
2018-08-30T00:14:01.231Z,15.30
2018-08-30T00:16:30.173Z,15.40
2018-08-30T00:18:59.179Z,15.40
2018-08-30T00:21:28.206Z,15.30
2018-08-30T00:23:57.192Z,15.30
2018-08-30T00:26:26.266Z,15.30
2018-08-30T00:28:55.241Z,15.30
2018-08-30T00:31:24.306Z,15.30
2018-08-30T00:33:53.327Z,15.30
2018-08-30T00:36:22.369Z,15.30
2018-08-30T00:38:51.316Z,15.20
2018-08-30T00:41:20.336Z,15.20
2018-08-30T00:43:49.346Z,15.20
2018-08-30T00:46:18.341Z,15.20
2018-08-30T00:48:47.332Z,15.20
2018-08-30T00:51:16.300Z,15.20
2018-08-30T00:53:45.255Z,15.20
2018-08-30T00:56:14.219Z,15.20
2018-08-30T00:58:43.174Z,15.20
2018-08-30T01:01:12.190Z,15.20
2018-08-30T01:03:41.214Z,15.30
2018-08-30T01:06:10.091Z,15.30
2018-08-30T01:08:39.061Z,15.40
2018-08-30T01:11:08.120Z,15.40
2018-08-30T01:13:37.126Z,15.50
2018-08-30T01:16:06.195Z,15.50
2018-08-30T01:18:35.418Z,15.70
2018-08-30T01:21:04.415Z,15.70
2018-08-30T01:23:33.506Z,15.70
2018-08-30T01:26:02.530Z,15.70
2018-08-30T01:28:31.559Z,15.70
2018-08-30T01:31:00.544Z,15.70
2018-08-30T01:33:29.566Z,15.70
2018-08-30T01:35:58.605Z,15.80
2018-08-30T01:38:27.630Z,15.80
2018-08-30T01:40:56.636Z,15.90
2018-08-30T01:43:25.629Z,15.90
2018-08-30T01:45:54.636Z,16.10
2018-08-30T01:48:23.625Z,16.30
2018-08-30T01:50:52.585Z,16.30
2018-08-30T01:53:21.465Z,16.40
2018-08-30T01:55:50.483Z,16.60
2018-08-30T01:58:19.495Z,16.70
2018-08-30T02:00:48.445Z,16.80
2018-08-30T02:03:17.392Z,17.00
2018-08-30T02:05:46.330Z,17.00
2018-08-30T02:08:15.260Z,17.10
2018-08-30T02:10:44.291Z,17.10
2018-08-30T02:13:13.334Z,17.20
2018-08-30T02:15:42.294Z,17.20
2018-08-30T02:18:11.192Z,17.30
2018-08-30T02:20:40.205Z,17.30
2018-08-30T02:23:09.155Z,17.40
2018-08-30T02:25:38.126Z,17.40
2018-08-30T02:28:07.153Z,17.50
2018-08-30T02:30:36.540Z,17.50
2018-08-30T02:33:05.572Z,17.60
2018-08-30T02:35:34.640Z,17.70
2018-08-30T02:38:03.799Z,17.70
2018-08-30T02:40:33.157Z,17.70
2018-08-30T02:43:02.188Z,17.60
2018-08-30T02:45:31.168Z,17.60
2018-08-30T02:48:00.049Z,17.70
2018-08-30T02:50:29.007Z,17.70
2018-08-30T02:52:58.025Z,17.80
2018-08-30T02:55:27.007Z,18.00
2018-08-30T02:57:55.931Z,18.30
2018-08-30T03:00:24.945Z,18.40
2018-08-30T03:02:54.017Z,18.50
2018-08-30T03:05:23.084Z,18.60
2018-08-30T03:07:52.056Z,18.60
2018-08-30T03:10:21.135Z,18.60
2018-08-30T03:12:50.117Z,18.60
2018-08-30T03:15:19.045Z,18.70
2018-08-30T03:17:48.053Z,18.80
2018-08-30T03:20:17.045Z,18.80
2018-08-30T03:22:46.097Z,18.80
2018-08-30T03:25:15.132Z,18.80
2018-08-30T03:27:44.115Z,18.80
2018-08-30T03:30:13.118Z,18.90
2018-08-30T03:32:42.085Z,19.00
2018-08-30T03:35:11.082Z,19.00
2018-08-30T03:37:40.099Z,19.10
2018-08-30T03:40:09.085Z,19.30
2018-08-30T03:42:38.026Z,19.30
2018-08-30T03:45:07.080Z,19.30
2018-08-30T03:47:36.041Z,19.30
2018-08-30T03:50:05.086Z,19.30
2018-08-30T03:52:34.073Z,19.30
2018-08-30T03:55:03.226Z,19.30
2018-08-30T03:57:32.277Z,19.30
2018-08-30T04:00:01.225Z,19.30
2018-08-30T04:02:30.161Z,19.40
2018-08-30T04:04:59.116Z,19.30
2018-08-30T04:07:28.008Z,19.30
2018-08-30T04:09:56.990Z,19.30
2018-08-30T04:12:26.048Z,19.30
2018-08-30T04:14:55.044Z,19.30
2018-08-30T04:17:24.023Z,19.30
2018-08-30T04:19:52.954Z,19.20
2018-08-30T04:22:21.890Z,19.20
2018-08-30T04:24:50.864Z,19.10
2018-08-30T04:27:19.805Z,19.00
2018-08-30T04:29:48.783Z,19.00
2018-08-30T04:32:17.801Z,18.90
2018-08-30T04:34:46.799Z,18.80
2018-08-30T04:37:15.813Z,18.80
2018-08-30T04:39:44.740Z,18.80
2018-08-30T04:42:13.723Z,18.70
2018-08-30T04:44:42.674Z,18.70
2018-08-30T04:47:11.747Z,18.70
2018-08-30T04:49:40.694Z,18.60
2018-08-30T04:52:09.730Z,18.70
2018-08-30T04:54:38.669Z,18.80
2018-08-30T04:57:07.715Z,18.90
2018-08-30T04:59:36.764Z,18.90
2018-08-30T05:02:05.882Z,19.10
2018-08-30T05:04:34.943Z,19.10
2018-08-30T05:07:03.948Z,19.10
2018-08-30T05:09:32.820Z,19.20
2018-08-30T05:12:01.853Z,19.10
2018-08-30T05:14:30.813Z,19.10
2018-08-30T05:16:59.828Z,19.10
2018-08-30T05:19:28.846Z,19.10
2018-08-30T05:21:57.819Z,19.20
2018-08-30T05:24:26.797Z,19.20
2018-08-30T05:26:55.824Z,19.30
2018-08-30T05:29:24.845Z,19.40
2018-08-30T05:31:53.807Z,19.40
2018-08-30T05:34:22.781Z,19.50
2018-08-30T05:36:51.709Z,19.60
2018-08-30T05:39:20.730Z,19.70
2018-08-30T05:41:49.746Z,19.70
2018-08-30T05:44:18.769Z,19.70
2018-08-30T05:46:47.849Z,19.70
2018-08-30T05:49:16.921Z,19.70
2018-08-30T05:51:45.804Z,19.70
2018-08-30T05:54:14.838Z,19.70
2018-08-30T05:56:44.482Z,19.70
2018-08-30T05:59:13.405Z,19.60
2018-08-30T06:01:42.379Z,19.50
2018-08-30T06:04:11.355Z,19.50
2018-08-30T06:06:40.387Z,19.40
2018-08-30T06:09:09.301Z,19.40
2018-08-30T06:11:38.220Z,19.30
2018-08-30T06:14:07.234Z,19.40
2018-08-30T06:16:36.316Z,19.40
2018-08-30T06:19:05.395Z,19.50
2018-08-30T06:21:34.451Z,19.60
2018-08-30T06:24:03.448Z,19.70
2018-08-30T06:26:32.521Z,19.90
2018-08-30T06:29:01.542Z,20.00
2018-08-30T06:31:30.529Z,20.00
2018-08-30T06:33:59.535Z,20.10
2018-08-30T06:36:28.503Z,20.20
2018-08-30T06:38:57.418Z,20.20
2018-08-30T06:41:26.427Z,20.30
2018-08-30T06:43:55.355Z,20.40
2018-08-30T06:46:24.349Z,20.50
2018-08-30T06:48:53.315Z,20.60
2018-08-30T06:51:22.335Z,20.70
2018-08-30T06:53:51.396Z,20.90
2018-08-30T06:56:20.620Z,20.90
2018-08-30T06:58:49.728Z,21.00
2018-08-30T07:01:18.632Z,21.00
2018-08-30T07:03:47.571Z,21.00
2018-08-30T07:06:16.690Z,21.00
2018-08-30T07:08:45.710Z,21.00
2018-08-30T07:11:14.724Z,21.00
2018-08-30T07:13:43.798Z,21.10
2018-08-30T07:16:12.890Z,21.30
2018-08-30T07:18:41.822Z,21.50
2018-08-30T07:21:10.907Z,21.60
2018-08-30T07:23:39.933Z,21.80
2018-08-30T07:26:08.926Z,22.10
2018-08-30T07:28:38.054Z,22.40
2018-08-30T07:31:07.176Z,22.60
2018-08-30T07:33:36.378Z,22.80
2018-08-30T07:36:05.480Z,22.90
2018-08-30T07:38:34.451Z,22.80
2018-08-30T07:41:03.445Z,22.70
2018-08-30T07:43:32.427Z,22.50
2018-08-30T07:46:01.578Z,22.40
2018-08-30T07:48:30.881Z,22.60
2018-08-30T07:51:00.019Z,22.90
2018-08-30T07:53:29.048Z,23.30
2018-08-30T07:55:58.137Z,23.60
2018-08-30T07:58:27.107Z,24.00
2018-08-30T08:00:56.333Z,24.30
2018-08-30T08:03:25.356Z,24.20
2018-08-30T08:05:54.417Z,24.10
2018-08-30T08:08:23.462Z,23.90
2018-08-30T08:10:52.482Z,23.80
2018-08-30T08:13:21.535Z,23.80
2018-08-30T08:15:50.707Z,23.90
2018-08-30T08:18:20.341Z,24.20
2018-08-30T08:20:49.518Z,24.50
2018-08-30T08:23:18.740Z,24.80
2018-08-30T08:25:47.775Z,25.10
2018-08-30T08:28:16.845Z,25.40
2018-08-30T08:30:45.909Z,25.50
2018-08-30T08:33:14.937Z,25.50
2018-08-30T08:35:43.868Z,25.70
2018-08-30T08:38:12.962Z,25.70
2018-08-30T08:40:42.054Z,25.80
2018-08-30T08:43:11.060Z,26.00
2018-08-30T08:45:40.169Z,26.10
2018-08-30T08:48:09.169Z,26.30
2018-08-30T08:50:38.202Z,26.40
2018-08-30T08:53:07.261Z,26.50
2018-08-30T08:55:36.225Z,26.70
2018-08-30T08:58:05.887Z,27.00
2018-08-30T09:00:34.907Z,27.40
2018-08-30T09:03:04.135Z,27.70
2018-08-30T09:05:33.571Z,28.20
2018-08-30T09:08:02.720Z,28.50
2018-08-30T09:10:31.902Z,28.60
2018-08-30T09:13:01.118Z,28.20
2018-08-30T09:15:30.274Z,27.70
2018-08-30T09:17:59.510Z,27.30
2018-08-30T09:20:28.602Z,27.20
2018-08-30T09:22:57.722Z,27.00
2018-08-30T09:25:26.779Z,27.10
2018-08-30T09:27:55.870Z,27.20
2018-08-30T09:30:24.883Z,27.50
2018-08-30T09:32:53.987Z,27.90
2018-08-30T09:35:23.014Z,28.10
2018-08-30T09:37:52.090Z,28.30
2018-08-30T09:40:21.289Z,28.60
2018-08-30T09:42:50.450Z,28.80
2018-08-30T09:45:19.606Z,29.00
2018-08-30T09:47:48.867Z,29.30
2018-08-30T09:50:18.028Z,29.30
2018-08-30T09:52:47.211Z,29.30
2018-08-30T09:55:16.374Z,29.30
2018-08-30T09:57:45.293Z,29.10
2018-08-30T10:00:18.480Z,29.10
2018-08-30T10:02:49.365Z,29.20
2018-08-30T10:05:18.766Z,29.40
2018-08-30T10:07:47.909Z,29.00
2018-08-30T10:10:16.969Z,28.80
2018-08-30T10:12:46.078Z,29.00
2018-08-30T10:15:15.059Z,29.40
2018-08-30T10:17:43.987Z,29.70
2018-08-30T10:20:13.149Z,29.90
2018-08-30T10:22:42.175Z,29.90
2018-08-30T10:25:11.173Z,29.80
2018-08-30T10:27:40.266Z,29.70
2018-08-30T10:30:09.383Z,29.60
2018-08-30T10:32:38.491Z,29.70
2018-08-30T10:35:07.650Z,29.70
2018-08-30T10:37:36.727Z,29.60
2018-08-30T10:40:05.791Z,29.70
2018-08-30T10:42:34.819Z,30.00
2018-08-30T10:45:03.977Z,30.10
2018-08-30T10:47:33.153Z,29.80
2018-08-30T10:50:02.226Z,29.70
2018-08-30T10:52:31.323Z,29.70
2018-08-30T10:55:00.359Z,29.70
2018-08-30T10:57:29.472Z,29.90
2018-08-30T10:59:58.677Z,30.20
2018-08-30T11:02:27.793Z,30.50
2018-08-30T11:04:56.994Z,30.70
2018-08-30T11:07:26.148Z,30.90
2018-08-30T11:09:55.141Z,31.00
2018-08-30T11:12:24.246Z,31.10
2018-08-30T11:14:53.306Z,31.10
2018-08-30T11:17:22.386Z,31.00
2018-08-30T11:19:51.409Z,31.00
2018-08-30T11:22:20.472Z,30.70
2018-08-30T11:24:49.482Z,30.80
2018-08-30T11:27:18.675Z,31.10
2018-08-30T11:29:47.824Z,31.40
2018-08-30T11:32:17.009Z,31.60
2018-08-30T11:34:46.026Z,31.60
2018-08-30T11:37:15.068Z,31.90
2018-08-30T11:39:44.084Z,32.20
2018-08-30T11:42:13.011Z,32.20
2018-08-30T11:44:42.092Z,32.10
2018-08-30T11:47:11.073Z,31.90
2018-08-30T11:49:39.931Z,31.90
2018-08-30T11:52:09.020Z,31.90
2018-08-30T11:54:37.989Z,31.80
2018-08-30T11:57:06.999Z,31.60
2018-08-30T11:59:36.034Z,31.70
2018-08-30T12:02:05.188Z,31.80
2018-08-30T12:04:34.253Z,31.80
2018-08-30T12:07:03.333Z,31.80
2018-08-30T12:09:32.273Z,31.70
2018-08-30T12:12:02.147Z,31.70
2018-08-30T12:14:31.083Z,31.50
2018-08-30T12:17:00.382Z,31.50
2018-08-30T12:19:29.381Z,31.60
2018-08-30T12:21:58.361Z,31.70
2018-08-30T12:24:27.358Z,31.70
2018-08-30T12:26:56.348Z,31.60
2018-08-30T12:29:25.398Z,31.60
2018-08-30T12:31:54.402Z,31.50
2018-08-30T12:34:23.471Z,31.50
2018-08-30T12:36:52.496Z,31.70
2018-08-30T12:39:21.492Z,32.00
2018-08-30T12:41:50.581Z,32.20
2018-08-30T12:44:19.719Z,32.20
2018-08-30T12:46:48.713Z,32.20
2018-08-30T12:49:17.805Z,31.90
2018-08-30T12:51:46.900Z,31.70
2018-08-30T12:54:15.870Z,31.30
2018-08-30T12:56:44.957Z,30.40
2018-08-30T12:59:16.533Z,29.90
2018-08-30T13:01:46.043Z,29.50
2018-08-30T13:04:15.100Z,29.30
2018-08-30T13:06:45.926Z,29.10
2018-08-30T13:09:16.100Z,29.10
2018-08-30T13:11:44.933Z,29.00
2018-08-30T13:14:13.983Z,29.00
2018-08-30T13:16:42.999Z,29.00
2018-08-30T13:19:12.196Z,29.00
2018-08-30T13:21:41.330Z,29.30
2018-08-30T13:24:10.484Z,30.40
2018-08-30T13:26:39.498Z,31.70
2018-08-30T13:29:08.640Z,32.90
2018-08-30T13:31:37.674Z,33.40
2018-08-30T13:34:06.987Z,33.70
2018-08-30T13:36:35.829Z,33.50
2018-08-30T13:39:06.805Z,32.70
2018-08-30T13:41:35.856Z,32.00
2018-08-30T13:44:05.701Z,31.20
2018-08-30T13:46:34.710Z,30.50
2018-08-30T13:49:03.888Z,29.80
2018-08-30T13:51:32.943Z,29.40
2018-08-30T13:54:02.055Z,28.90
2018-08-30T13:56:31.204Z,28.50
2018-08-30T13:59:00.314Z,28.30
2018-08-30T14:01:29.685Z,28.40
2018-08-30T14:03:58.132Z,29.00
2018-08-30T14:06:27.254Z,29.80
2018-08-30T14:08:56.390Z,29.90
2018-08-30T14:11:25.242Z,29.50
2018-08-30T14:13:54.299Z,29.10
2018-08-30T14:16:23.166Z,28.40
2018-08-30T14:18:52.315Z,28.00
2018-08-30T14:21:21.333Z,27.70
2018-08-30T14:23:50.322Z,27.20
2018-08-30T14:26:19.365Z,26.60
2018-08-30T14:28:48.351Z,26.20
2018-08-30T14:31:17.456Z,25.90
2018-08-30T14:33:46.640Z,25.50
2018-08-30T14:36:15.807Z,25.30
2018-08-30T14:38:45.003Z,25.10
2018-08-30T14:41:14.167Z,24.70
2018-08-30T14:43:43.207Z,24.40
2018-08-30T14:46:12.312Z,24.20
2018-08-30T14:48:41.273Z,24.10
2018-08-30T14:51:10.476Z,24.00
2018-08-30T14:53:39.636Z,23.90
2018-08-30T14:56:08.786Z,23.80
2018-08-30T14:58:37.862Z,23.60
2018-08-30T15:01:07.091Z,23.60
2018-08-30T15:03:36.035Z,23.60
2018-08-30T15:06:05.225Z,23.70
2018-08-30T15:08:34.071Z,23.60
2018-08-30T15:11:03.098Z,23.60
2018-08-30T15:13:32.149Z,23.50
2018-08-30T15:16:01.282Z,23.40
2018-08-30T15:18:30.429Z,23.40
2018-08-30T15:20:59.530Z,23.20
2018-08-30T15:23:28.700Z,22.90
2018-08-30T15:25:57.681Z,22.60
2018-08-30T15:28:26.672Z,22.50
2018-08-30T15:30:55.799Z,22.30
2018-08-30T15:33:24.888Z,22.00
2018-08-30T15:35:54.555Z,21.80
2018-08-30T15:38:23.597Z,21.70
2018-08-30T15:40:52.709Z,21.40
2018-08-30T15:43:21.783Z,21.30
2018-08-30T15:45:50.870Z,21.10
2018-08-30T15:48:20.033Z,20.90
2018-08-30T15:50:49.103Z,20.70
2018-08-30T15:53:18.291Z,20.50
2018-08-30T15:55:47.334Z,20.40
2018-08-30T15:58:16.459Z,20.20
2018-08-30T16:00:45.587Z,20.10
2018-08-30T16:03:14.674Z,20.00
2018-08-30T16:05:43.700Z,19.80
2018-08-30T16:08:12.754Z,19.60
2018-08-30T16:10:41.809Z,19.50
2018-08-30T16:13:10.835Z,19.40
2018-08-30T16:15:39.854Z,19.30
2018-08-30T16:18:08.816Z,19.20
2018-08-30T16:20:38.175Z,19.20
2018-08-30T16:23:20.144Z,19.10
2018-08-30T16:25:49.133Z,19.00
2018-08-30T16:28:18.020Z,19.00
2018-08-30T16:30:47.213Z,18.90
2018-08-30T16:33:16.427Z,18.80
2018-08-30T16:35:45.267Z,18.70
2018-08-30T16:38:15.040Z,18.60
2018-08-30T16:40:44.727Z,18.60
2018-08-30T16:43:13.680Z,18.50
2018-08-30T16:45:43.188Z,18.40
2018-08-30T16:48:12.204Z,18.40
2018-08-30T16:50:41.317Z,18.40
2018-08-30T16:53:10.445Z,18.40
2018-08-30T16:55:39.586Z,18.40
2018-08-30T16:58:08.608Z,18.40
2018-08-30T17:00:37.651Z,18.40
2018-08-30T17:03:07.172Z,18.30
2018-08-30T17:05:36.522Z,18.30
2018-08-30T17:08:06.090Z,18.20
2018-08-30T17:10:35.129Z,18.10
2018-08-30T17:13:04.163Z,18.10
2018-08-30T17:15:33.162Z,18.10
2018-08-30T17:18:02.120Z,18.10
2018-08-30T17:20:40.728Z,18.10
2018-08-30T17:23:10.025Z,18.00
2018-08-30T17:25:39.067Z,18.00
2018-08-30T17:28:08.119Z,17.90
2018-08-30T17:30:37.188Z,17.80
2018-08-30T17:33:06.484Z,17.70
2018-08-30T17:35:35.583Z,17.70
2018-08-30T17:38:04.791Z,17.70
2018-08-30T17:40:33.884Z,17.70
2018-08-30T17:43:03.034Z,17.70
2018-08-30T17:45:32.532Z,17.70
2018-08-30T17:48:01.494Z,17.70
2018-08-30T17:50:30.777Z,17.70
2018-08-30T17:52:59.792Z,17.70
2018-08-30T17:55:28.887Z,17.70
2018-08-30T17:57:57.947Z,17.60
2018-08-30T18:00:26.962Z,17.60
2018-08-30T18:02:56.020Z,17.60
2018-08-30T18:05:25.143Z,17.50
2018-08-30T18:07:54.252Z,17.50
2018-08-30T18:10:23.543Z,17.50
2018-08-30T18:12:52.668Z,17.50
2018-08-30T18:15:21.727Z,17.50
2018-08-30T18:17:50.825Z,17.50
2018-08-30T18:20:19.842Z,17.40
2018-08-30T18:22:48.969Z,17.30
2018-08-30T18:25:18.159Z,17.20
2018-08-30T18:27:47.230Z,17.20
2018-08-30T18:30:16.327Z,17.10
2018-08-30T18:32:45.450Z,17.10
2018-08-30T18:35:14.553Z,17.10
2018-08-30T18:37:43.613Z,17.00
2018-08-30T18:40:12.723Z,17.00
2018-08-30T18:42:41.805Z,16.90
2018-08-30T18:45:10.890Z,16.90
2018-08-30T18:47:39.924Z,16.90
2018-08-30T18:50:09.076Z,16.90
2018-08-30T18:52:39.719Z,16.90
2018-08-30T18:55:08.729Z,16.90
2018-08-30T18:57:37.762Z,17.00
2018-08-30T19:00:07.937Z,16.90
2018-08-30T19:02:37.015Z,17.00
2018-08-30T19:05:06.006Z,17.00
2018-08-30T19:07:35.112Z,17.00
2018-08-30T19:10:04.237Z,17.00
2018-08-30T19:12:33.260Z,17.00
2018-08-30T19:15:06.522Z,16.90
2018-08-30T19:17:40.985Z,16.90
2018-08-30T19:20:10.050Z,16.80
2018-08-30T19:22:39.094Z,16.80
2018-08-30T19:25:15.670Z,16.80
2018-08-30T19:27:46.160Z,16.70
2018-08-30T19:30:20.671Z,16.80
2018-08-30T19:32:49.787Z,16.70
2018-08-30T19:35:24.064Z,16.70
2018-08-30T19:37:53.047Z,16.70
2018-08-30T19:40:27.210Z,16.60
2018-08-30T19:42:57.235Z,16.60
2018-08-30T19:45:28.763Z,16.60
2018-08-30T19:47:58.438Z,16.60
2018-08-30T19:50:28.365Z,16.60
2018-08-30T19:52:57.406Z,16.60
2018-08-30T19:55:26.452Z,16.60
2018-08-30T19:57:55.427Z,16.60
2018-08-30T20:00:24.591Z,16.50
2018-08-30T20:02:53.788Z,16.50
2018-08-30T20:05:22.853Z,16.50
2018-08-30T20:07:51.902Z,16.50
2018-08-30T20:10:21.191Z,16.50
2018-08-30T20:12:50.189Z,16.50
2018-08-30T20:15:19.169Z,16.50
2018-08-30T20:17:48.154Z,16.50
2018-08-30T20:20:17.141Z,16.40
2018-08-30T20:22:46.189Z,16.40
2018-08-30T20:25:15.252Z,16.40
2018-08-30T20:27:44.261Z,16.40
2018-08-30T20:30:13.356Z,16.40
2018-08-30T20:32:42.354Z,16.40
2018-08-30T20:35:11.422Z,16.40
2018-08-30T20:37:40.434Z,16.40
2018-08-30T20:40:09.532Z,16.40
2018-08-30T20:42:38.607Z,16.40
2018-08-30T20:45:07.633Z,16.30
2018-08-30T20:47:36.574Z,16.40
2018-08-30T20:50:05.659Z,16.40
2018-08-30T20:52:34.703Z,16.40
2018-08-30T20:55:03.719Z,16.40
2018-08-30T20:57:32.767Z,16.40
2018-08-30T21:00:01.906Z,16.40
2018-08-30T21:02:30.871Z,16.40
2018-08-30T21:04:59.807Z,16.30
2018-08-30T21:07:28.908Z,16.30
2018-08-30T21:09:57.892Z,16.30
2018-08-30T21:12:26.927Z,16.30
2018-08-30T21:14:55.863Z,16.30
2018-08-30T21:17:24.869Z,16.30
2018-08-30T21:19:53.824Z,16.30
2018-08-30T21:22:22.812Z,16.30
2018-08-30T21:24:51.721Z,16.20
2018-08-30T21:27:20.652Z,16.20
2018-08-30T21:29:49.656Z,16.20
2018-08-30T21:32:18.651Z,16.20
2018-08-30T21:34:47.609Z,16.20
2018-08-30T21:37:16.556Z,16.20
2018-08-30T21:39:45.472Z,16.20
2018-08-30T21:42:15.446Z,16.20
2018-08-30T21:44:44.372Z,16.20
2018-08-30T21:47:13.303Z,16.20
2018-08-30T21:49:42.341Z,16.20
2018-08-30T21:52:11.284Z,16.20
2018-08-30T21:54:40.270Z,16.10
2018-08-30T21:57:09.228Z,16.10
2018-08-30T21:59:38.211Z,16.10
2018-08-30T22:02:07.290Z,16.10
2018-08-30T22:04:36.465Z,16.20
2018-08-30T22:07:05.410Z,16.10
2018-08-30T22:09:34.471Z,16.20
2018-08-30T22:12:03.560Z,16.20
2018-08-30T22:14:32.512Z,16.20
2018-08-30T22:17:01.443Z,16.20
2018-08-30T22:19:30.427Z,16.20
2018-08-30T22:21:59.398Z,16.20
2018-08-30T22:24:29.259Z,16.20
2018-08-30T22:26:58.290Z,16.20
2018-08-30T22:29:27.243Z,16.20
2018-08-30T22:31:56.222Z,16.20
2018-08-30T22:34:25.208Z,16.20
2018-08-30T22:36:54.233Z,16.20
2018-08-30T22:39:23.201Z,16.30
2018-08-30T22:41:52.182Z,16.20
2018-08-30T22:44:21.715Z,16.20
2018-08-30T22:46:50.800Z,16.10
2018-08-30T22:49:19.710Z,16.20
2018-08-30T22:51:48.676Z,16.20
2018-08-30T22:54:17.635Z,16.20
2018-08-30T22:56:46.821Z,16.30
2018-08-30T22:59:15.938Z,16.20
2018-08-30T23:01:44.891Z,16.20
2018-08-30T23:04:13.853Z,16.20
2018-08-30T23:06:43.027Z,16.10
2018-08-30T23:09:12.135Z,16.10
2018-08-30T23:11:41.162Z,16.00
2018-08-30T23:14:10.146Z,16.10
2018-08-30T23:16:39.224Z,16.10
2018-08-30T23:19:08.335Z,16.10
2018-08-30T23:21:37.332Z,16.20
2018-08-30T23:24:06.708Z,16.10
2018-08-30T23:26:35.655Z,16.10
2018-08-30T23:29:04.659Z,16.10
2018-08-30T23:31:33.668Z,16.10
2018-08-30T23:34:02.663Z,16.10
2018-08-30T23:36:31.578Z,16.10
2018-08-30T23:39:00.556Z,16.10
2018-08-30T23:41:29.564Z,16.10
2018-08-30T23:43:58.660Z,16.00
2018-08-30T23:46:27.636Z,16.00
2018-08-30T23:48:56.632Z,16.00
2018-08-30T23:51:25.771Z,15.90
2018-08-30T23:53:54.719Z,15.90
2018-08-30T23:56:23.754Z,15.90
2018-08-30T23:59:03.733Z,15.80
